Etusivu
METAR-TAF:

METAR-TAF

Lentoasemat :

Mikkelin lentoasema

Mikkeli, Suomi

Leveyspiiri: 61-44N, Pituuspiiri: 027-18E, korkeus merenpinnasta: 138 m

Tämänhetkinen sää

Tämä raportti tehtiin 30 minuuttia sitten, kello 11.50 UTC
Tuuli 7 kn idästä/kaakosta
Lämpötila 3°C
Kosteus 100%
Ilmanpaine 1010 hPa
Näkyvyys: 3600 m
Pilvistä 200 ft:n korkeudessa
utua

METAR: EFMI 131150Z AUTO 11007KT 3600 BR OVC002 03/03 Q1010

Aika: 14:20 (12:20 UTC)


TAF: puuttuu

Säähavainnot ja -ennusteet yli 4000 lentoasemalta (METAR- ja TAF-raportit).

Käytössä olevat sääasemat on merkitty karttaan keltaisilla ja punaisilla pisteillä.

Aseta hiiri pisteen päälle nähdäksesi sääaseman nimen.

Klikkaa sitten nähdäksesi säähavainnot ja -ennusteet.

Kartan vaihtaminen: klikkaa mustalla rastilla varustettuja vihreitä pisteitä, niin voit zoomata sisään; viivalla varustettua vihreää pistettä, niin voit zoomata ulos tai vihreitä nuolia, niin pääset viereisille kartoille.


METAR-TAF: